createdAt,value
2023-03-15T00:01:33.391Z,1004.2
2023-03-15T00:17:07.847Z,1004.4
2023-03-15T00:32:42.252Z,1004.6
2023-03-15T00:48:16.635Z,1004.7
2023-03-15T01:03:50.971Z,1005
2023-03-15T01:19:25.421Z,1005
2023-03-15T01:34:59.762Z,1005.1
2023-03-15T01:50:34.111Z,1005.2
2023-03-15T02:06:08.505Z,1005.4
2023-03-15T02:21:42.845Z,1005.6
2023-03-15T02:37:17.184Z,1005.8
2023-03-15T02:52:51.645Z,1005.8
2023-03-15T03:08:26.049Z,1006
2023-03-15T03:24:00.376Z,1006.3
2023-03-15T03:39:34.860Z,1006.5
2023-03-15T03:55:09.039Z,1006.6
2023-03-15T04:10:43.363Z,1006.8
2023-03-15T04:26:17.742Z,1007
2023-03-15T04:41:52.071Z,1007.2
2023-03-15T04:57:26.440Z,1007.3
2023-03-15T05:13:00.887Z,1007.5
2023-03-15T05:28:35.210Z,1007.7
2023-03-15T05:44:09.542Z,1007.8
2023-03-15T05:59:43.860Z,1008.1
2023-03-15T06:15:18.406Z,1008.2
2023-03-15T06:30:52.745Z,1008.2
2023-03-15T06:46:27.474Z,1008.3
2023-03-15T07:02:02.025Z,1008.5
2023-03-15T07:17:36.579Z,1008.6
2023-03-15T07:33:10.967Z,1008.6
2023-03-15T07:48:45.419Z,1008.8
2023-03-15T08:04:20.764Z,1009
2023-03-15T08:19:55.124Z,1009.1
2023-03-15T08:35:29.520Z,1009.3
2023-03-15T08:51:04.198Z,1009.5
2023-03-15T09:06:38.611Z,1009.6
2023-03-15T09:22:17.093Z,1009.6
2023-03-15T09:37:57.974Z,1009.6
2023-03-15T09:53:32.498Z,1009.7
2023-03-15T10:09:06.884Z,1009.8
2023-03-15T10:24:41.446Z,1010.1
2023-03-15T10:40:15.978Z,1010.1
2023-03-15T10:55:50.421Z,1010
2023-03-15T11:11:24.804Z,1010.3
2023-03-15T11:26:59.156Z,1010.5
2023-03-15T11:42:33.542Z,1010.8
2023-03-15T11:58:07.961Z,1011
2023-03-15T12:13:42.261Z,1011.4
2023-03-15T12:29:16.631Z,1011
2023-03-15T12:44:54.084Z,1010.8
2023-03-15T13:00:28.502Z,1010.8
2023-03-15T13:16:02.925Z,1010.9
2023-03-15T13:31:37.714Z,1011
2023-03-15T13:47:12.164Z,1010.9
2023-03-15T14:02:46.671Z,1010.9
2023-03-15T14:18:21.448Z,1011
2023-03-15T14:33:55.814Z,1011.2
2023-03-15T14:49:30.202Z,1011.2
2023-03-15T15:05:04.607Z,1011.2
2023-03-15T15:20:39.009Z,1011.4
2023-03-15T15:36:13.413Z,1011.5
2023-03-15T15:51:47.897Z,1012.1
2023-03-15T16:07:22.463Z,1012.3
2023-03-15T16:22:56.842Z,1012.4
2023-03-15T16:38:31.345Z,1012.8
2023-03-15T16:54:17.850Z,1013.1
2023-03-15T17:09:57.563Z,1013.4
2023-03-15T17:25:32.071Z,1013.6
2023-03-15T17:41:06.520Z,1013.9
2023-03-15T17:56:40.889Z,1014
2023-03-15T18:12:15.609Z,1014.2
2023-03-15T18:27:50.045Z,1014.3
2023-03-15T18:43:24.427Z,1014.5
2023-03-15T18:58:58.803Z,1014.7
2023-03-15T19:14:34.550Z,1014.8
2023-03-15T19:30:09.202Z,1015
2023-03-15T19:45:43.753Z,1015.1
2023-03-15T20:01:18.416Z,1015.3
2023-03-15T20:16:53.195Z,1015.5
2023-03-15T20:32:27.754Z,1015.7
2023-03-15T20:48:02.675Z,1015.9
2023-03-15T21:03:37.035Z,1016.1
2023-03-15T21:19:11.352Z,1016.2
2023-03-15T21:34:45.640Z,1016.3
2023-03-15T21:50:20.036Z,1016.4
2023-03-15T22:05:54.372Z,1016.6
2023-03-15T22:21:28.736Z,1016.5
2023-03-15T22:37:03.067Z,1016.6
2023-03-15T22:52:37.346Z,1016.8
2023-03-15T23:08:11.654Z,1016.9
2023-03-15T23:23:46.027Z,1016.9
2023-03-15T23:39:20.489Z,1016.9
2023-03-15T23:54:54.786Z,1017.1
